Woodbury, Indiana
Current Conditions -  °F | °C
As of 2:35 AM on Saturday 25 Oct 2014 (Local Time) from KMQJ Reporting Station
Scattered Clouds Scattered Clouds  
Wind Chill: 10°   Ceiling: Unl
Heat Index: 10°   Visibility: 7mi
Dew Point: 10°   Wind: 8mph
Humidity: 100%   Direction: 180°S
Pressure: 29.99"   Gusts: NA
Location:  39.9249°N, 85.9217°W
Report Text: KMQJ 250635Z AUTO 18007KT 7SM SCT090 10/10 A2999 RMK AO1
Loading
Personal Weather Stations






























Interactive Weather Map
Tropical Storm Tracking
New forecast layout! Learn more

10-Day Weather Forecast

Advertisements
Track Severe Weather on mobile